Flight Track Log - Related Links

Times and Time Zones

All times are in EDT time to prevent confusion due to time zone crossing. See the AAL2466 flight status page for this flight to view local times or setup timezone preferences in your user account.

Time Position Orientation Groundspeed Altitude Reporting Facility
EDT Latitude Longitude Course Direction KTS MPH feet Rate Location/Type
Sat 07:30:12 PM 32.8833 -97.0333 49° Northeast 194 223 1,200  Level Dallas / Fort Worth TRACON
Sat 07:30:54 PM 32.8500 -97.0167 157° South 221 254 2,600 2,176 Climbing Dallas / Fort Worth TRACON
Sat 07:31:54 PM 32.7833 -96.9833 157° South 254 292 4,900 2,350 Climbing Dallas / Fort Worth TRACON
Sat 07:32:54 PM 32.7667 -96.9000 103° East 291 335 7,300 2,255 Climbing Dallas / Fort Worth TRACON
Sat 07:33:00 PM 33.2358 -96.5759 49° Northeast  Level Estimated
Sat 07:34:00 PM 33.3203 -96.4599 49° Northeast  Level Estimated
Sat 07:34:15 PM 32.8228 -96.8194 50° Northeast 299 344 10,200  Level Fort Worth Center
Sat 07:35:00 PM 33.4047 -96.3436 49° Northeast  Level Estimated
Sat 07:35:16 PM 32.9208 -96.8061 North 352 405 11,800  Level Fort Worth Center
Sat 07:36:18 PM 33.0372 -96.8097 359° North 381 438 14,500 2,661 Climbing Fort Worth Center
Sat 07:37:20 PM 33.1453 -96.8139 358° North 384 442 17,300 2,419 Climbing Fort Worth Center
Sat 07:38:22 PM 33.2531 -96.8172 359° North 385 443 19,500 1,984 Climbing Fort Worth Center
Sat 07:39:24 PM 33.3742 -96.8217 358° North 402 463 21,400 1,597 Climbing Fort Worth Center
Sat 07:40:26 PM 33.4917 -96.7936 11° North 435 501 22,800 1,452 Climbing Fort Worth Center
Sat 07:41:28 PM 33.5953 -96.7197 31° Northeast 446 513 24,400 1,548 Climbing Fort Worth Center
Sat 07:42:30 PM 33.7042 -96.6375 32° Northeast 458 527 26,000 1,452 Climbing Fort Worth Center
Sat 07:43:32 PM 33.8167 -96.5547 31° Northeast 468 539 27,400 1,317 Climbing Fort Worth Center
Sat 07:44:33 PM 33.9289 -96.4714 32° Northeast 473 544 28,700 1,366 Climbing Fort Worth Center
Sat 07:45:35 PM 34.0661 -96.3719 31° Northeast 476 548 30,200 1,258 Climbing Fort Worth Center
Sat 07:46:37 PM 34.1581 -96.2839 38° Northeast 490 564 31,300 1,210 Climbing Fort Worth Center
Sat 07:47:39 PM 34.2494 -96.1200 56° Northeast 494 568 32,700 823 Climbing Fort Worth Center
Sat 07:48:41 PM 34.3175 -95.9786 60° Northeast 493 567 33,000 145 Climbing Fort Worth Center
Sat 07:49:43 PM 34.3886 -95.8386 58° Northeast 489 563 33,000  Level Fort Worth Center
Sat 07:50:45 PM 34.4578 -95.6975 59° Northeast 489 563 33,000  Level Fort Worth Center
Sat 07:51:47 PM 34.5339 -95.5444 59° Northeast 489 563 33,000  Level Fort Worth Center
Sat 07:52:48 PM 34.6036 -95.4022 59° Northeast 489 563 33,000  Level Fort Worth Center
Sat 07:53:50 PM 34.6708 -95.2622 60° Northeast 488 562 33,000  Level Fort Worth Center
Sat 07:54:52 PM 34.7406 -95.1197 59° Northeast 488 562 33,000  Level Fort Worth Center
Sat 07:55:54 PM 34.8097 -94.9769 59° Northeast 488 562 33,000  Level Fort Worth Center
Sat 07:56:56 PM 34.8897 -94.8075 60° Northeast 488 562 33,000  Level Fort Worth Center
Sat 07:57:33 PM 34.9311 -94.7197 60° Northeast 490 564 33,000  Level Memphis Center
Sat 07:58:34 PM 34.9981 -94.5803 60° Northeast 490 564 33,000  Level Memphis Center
Sat 07:59:35 PM 35.0656 -94.4372 60° Northeast 490 564 33,000  Level Memphis Center
Sat 08:00:36 PM 35.1358 -94.2906 60° Northeast 489 563 33,000  Level Memphis Center
Sat 08:01:38 PM 35.2019 -94.1475 60° Northeast 488 562 33,000  Level Memphis Center
Sat 08:02:39 PM 35.2697 -94.0039 60° Northeast 488 562 33,000  Level Memphis Center
Sat 08:03:40 PM 35.3361 -93.8614 60° Northeast 488 562 33,000  Level Memphis Center
Sat 08:04:41 PM 35.4019 -93.7203 60° Northeast 487 560 33,000  Level Memphis Center
Sat 08:05:42 PM 35.4697 -93.5753 60° Northeast 487 560 33,000  Level Memphis Center
Sat 08:06:44 PM 35.5497 -93.4008 61° Northeast 487 560 33,000  Level Memphis Center
Sat 08:07:45 PM 35.6044 -93.2822 60° Northeast 487 560 33,000  Level Memphis Center
Sat 08:08:46 PM 35.6831 -93.1092 61° Northeast 487 560 33,000  Level Memphis Center
Sat 08:09:47 PM 35.7506 -92.9619 61° Northeast 487 560 33,000  Level Memphis Center
Sat 08:10:48 PM 35.8167 -92.8144 61° Northeast 487 560 33,000  Level Memphis Center
Sat 08:11:50 PM 35.8817 -92.6694 61° Northeast 486 559 33,000  Level Memphis Center
Sat 08:12:51 PM 35.9467 -92.5233 61° Northeast 486 559 33,000  Level Memphis Center
Sat 08:13:52 PM 36.0117 -92.3781 61° Northeast 486 559 33,000  Level Memphis Center
Sat 08:14:53 PM 36.0781 -92.2314 61° Northeast 486 559 33,000  Level Memphis Center
Sat 08:15:54 PM 36.1456 -92.0758 62° Northeast 486 559 33,000  Level Memphis Center
Sat 08:16:55 PM 36.2125 -91.9269 61° Northeast 489 563 33,000  Level Memphis Center
Sat 08:17:57 PM 36.2736 -91.7853 62° Northeast 491 565 33,000  Level Memphis Center
Sat 08:18:58 PM 36.3422 -91.6264 62° Northeast 494 568 33,000  Level Memphis Center
Sat 08:19:59 PM 36.4078 -91.4797 61° Northeast 491 565 33,000  Level Memphis Center
Sat 08:21:00 PM 36.4706 -91.3306 62° Northeast 487 560 33,000  Level Memphis Center
Sat 08:22:01 PM 36.5347 -91.1856 61° Northeast 488 562 33,000  Level Memphis Center
Sat 08:23:02 PM 36.6006 -91.0308 62° Northeast 490 564 33,000  Level Memphis Center
Sat 08:24:03 PM 36.6650 -90.8778 62° Northeast 495 570 33,000  Level Memphis Center
Sat 08:25:04 PM 36.7442 -90.6942 62° Northeast 496 571 33,000  Level Memphis Center
Sat 08:26:05 PM 36.8075 -90.5425 62° Northeast 496 571 33,000  Level Memphis Center
Sat 08:27:06 PM 36.8708 -90.3900 63° Northeast 496 571 33,000  Level Memphis Center
Sat 08:28:07 PM 36.9356 -90.2372 62° Northeast 496 571 33,000  Level Memphis Center
Sat 08:29:08 PM 37.0003 -90.0828 62° Northeast 496 571 33,000  Level Memphis Center
Sat 08:30:09 PM 37.0642 -89.9281 63° Northeast 496 571 33,000  Level Memphis Center
Sat 08:31:10 PM 37.1281 -89.7725 63° Northeast 496 571 33,000  Level Memphis Center
Sat 08:32:11 PM 37.1908 -89.6186 63° Northeast 496 571 33,000 -295 Level Memphis Center
Sat 08:33:12 PM 37.2550 -89.4628 63° Northeast 497 572 32,400 -787 Descending Memphis Center
Sat 08:34:13 PM 37.3181 -89.3078 63° Northeast 496 571 31,400 -639 Descending Memphis Center
Sat 08:35:14 PM 37.3814 -89.1494 63° Northeast 501 577 31,100 -197 Descending Memphis Center
Sat 08:36:15 PM 37.4456 -88.9917 63° Northeast 502 578 31,000 -49 Descending Memphis Center
Sat 08:37:16 PM 37.5083 -88.8342 63° Northeast 503 579 31,000  Level Memphis Center
Sat 08:38:17 PM 37.5717 -88.6761 63° Northeast 503 579 31,000  Level Memphis Center
Sat 08:39:18 PM 37.6339 -88.5172 64° Northeast 503 579 31,000  Level Memphis Center
Sat 08:40:19 PM 37.6961 -88.3597 63° Northeast 503 579 31,000  Level Memphis Center
Sat 08:40:58 PM 37.7433 -88.2392 64° Northeast 503 579 31,000  Level Indianapolis Center
Sat 08:41:59 PM 37.8056 -88.0797 64° Northeast 503 579 31,000  Level Indianapolis Center
Sat 08:43:00 PM 37.8678 -87.9197 64° Northeast 503 579 31,000  Level Indianapolis Center
Sat 08:44:01 PM 37.9344 -87.7636 62° Northeast 504 580 31,000 -49 Level Indianapolis Center
Sat 08:45:02 PM 38.0525 -87.6742 31° Northeast 492 566 30,900 -689 Descending Indianapolis Center
Sat 08:46:03 PM 38.1722 -87.5881 29° Northeast 489 563 29,600 -1,377 Descending Indianapolis Center
Sat 08:47:04 PM 38.2886 -87.5050 29° Northeast 481 554 28,100 -1,525 Descending Indianapolis Center
Sat 08:48:05 PM 38.3994 -87.4239 30° Northeast 459 528 26,500 -1,525 Descending Indianapolis Center
Sat 08:49:06 PM 38.5042 -87.3464 30° Northeast 435 501 25,000 -1,475 Descending Indianapolis Center
Sat 08:50:07 PM 38.6089 -87.2717 29° Northeast 428 493 23,500 -1,525 Descending Indianapolis Center
Sat 08:51:08 PM 38.7083 -87.1969 30° Northeast 415 478 21,900 -1,820 Descending Indianapolis Center
Sat 08:52:09 PM 38.8075 -87.1242 30° Northeast 410 472 19,800 -2,164 Descending Indianapolis Center
Sat 08:53:10 PM 38.9067 -87.0508 30° Northeast 409 471 17,500 -2,213 Descending Indianapolis Center
Sat 08:54:11 PM 39.0058 -86.9761 30° Northeast 410 472 15,300 -2,164 Descending Indianapolis Center
Sat 08:55:12 PM 39.1053 -86.9025 30° Northeast 409 471 13,100 -1,918 Descending Indianapolis Center
Sat 08:56:13 PM 39.1983 -86.8336 30° Northeast 404 465 11,400 -1,033 Descending Indianapolis Center
Sat 08:57:14 PM 39.2836 -86.7697 30° Northeast 364 419 11,000 -541 Descending Indianapolis Center
Sat 08:58:15 PM 39.3589 -86.6964 37° Northeast 343 395 10,300 -1,279 Descending Indianapolis Center
Sat 08:59:16 PM 39.4394 -86.6158 38° Northeast 312 359 8,400 -1,672 Descending Indianapolis Center
Sat 09:00:17 PM 39.4994 -86.5536 39° Northeast 287 330 6,900 -1,623 Descending Indianapolis Center
Sat 09:01:18 PM 39.5556 -86.4972 38° Northeast 264 304 5,100 -1,672 Descending Indianapolis Center
Sat 09:02:19 PM 39.6075 -86.4486 36° Northeast 242 278 3,500 -1,279 Descending Indianapolis Center
Sat 09:03:20 PM 39.6450 -86.3989 46° Northeast 211 243 2,500 -885 Descending Indianapolis Center
Sat 09:04:21 PM 39.6769 -86.3583 44° Northeast 182 209 1,700 -836 Descending Indianapolis Center
Sat 09:05:22 PM 39.7053 -86.3219 45° Northeast 161 185 800 -496 Descending Indianapolis Center
Sat 09:06:22 PM 39.7311 -86.2894 44° Northeast 154 177 700 -100 Descending Indianapolis Center

Login

Don't have an account? Register now (free) for customized features, flight alerts, and more!